• Join FlightAware (Why Join?)
  • Login
  • US Flag 
03:25AM EDT


 

Airport Tracker/Info


-or-


 

Live Flight TrackerFlight Track Log ✈ RLI811 ✈ 07-Jul-2013 ✈ KGFL - KHPN

Flight Track Log - Related Links

Times and Time Zones

All times are in EDT time to prevent confusion due to time zone crossing. See the RLI811 flight status page for this flight to view local times or setup timezone preferences in your user account.

Time Position Orientation Groundspeed Altitude Reporting Facility
EDT Latitude Longitude Course Direction KTS MPH feet Rate Location/Type
01:32PM 43.0394 -73.7100 182° South 138 159 7,800  Level Boston Center
01:34PM 42.9997 -73.7206 191° South 116 133 8,600 300 Climbing Boston Center
01:35PM 42.9558 -73.7367 195° South 149 171 8,600  Level Boston Center
01:36PM 42.9200 -73.7697 214° Southwest 162 186 8,600  Level Boston Center
01:37PM 42.8800 -73.7972 207° Southwest 161 185 8,600 -120 Level Boston Center
01:38PM 42.9774 -73.6263 182° South  Level Estimated
01:38PM 42.8419 -73.8333 215° Southwest 161 185 8,400  Level Boston Center
01:39PM 42.8019 -73.8664 211° Southwest 169 194 8,100 -240 Descending Boston Center
01:40PM 42.7642 -73.8881 203° Southwest 170 196 8,000 -240 Descending Boston Center
01:41PM 42.7222 -73.9211 210° Southwest 168 193 7,700 -300 Descending Boston Center
01:42PM 42.6800 -73.9567 212° Southwest 176 203 7,400 -480 Descending Boston Center
01:43PM 42.6461 -74.0011 224° Southwest 180 207 6,800 -660 Descending Boston Center
01:44PM 42.5997 -74.0364 209° Southwest 186 214 6,100 -840 Descending Boston Center
01:45PM 42.5594 -74.0806 219° Southwest 193 222 5,200 -780 Descending Boston Center
01:46PM 42.5153 -74.1161 211° Southwest 202 232 4,600 -300 Descending Boston Center
01:47PM 42.4631 -74.1231 186° South 194 223 4,600  Level Boston Center
01:48PM 42.4086 -74.1272 183° South 175 201 4,700  Climbing Boston Center
01:49PM 42.3586 -74.1372 188° South 184 212 4,600 -60 Descending Boston Center
01:50PM 42.3042 -74.1442 185° South 189 217 4,600 -60 Level Boston Center
01:51PM 42.2481 -74.1453 181° South 187 215 4,500 -60 Descending Boston Center
01:52PM 42.2000 -74.1469 181° South 187 215 4,500 -60 Level Boston Center
01:53PM 42.1497 -74.1567 188° South 179 206 4,400 -240 Descending Boston Center
01:54PM 42.0892 -74.1606 183° South 186 214 4,000 -360 Descending Boston Center
01:56PM 42.0247 -74.1316 163° South  Level Estimated
02:03PM 41.7062 -73.9891 166° South  Level Estimated
02:04PM 41.6654 -73.9554 148° Southeast  Level FlightAware Approximate
02:05PM 41.6246 -73.9218 148° Southeast  Level FlightAware Approximate
02:06PM 41.5837 -73.8883 148° Southeast  Level FlightAware Approximate
02:07PM 41.5428 -73.8548 148° Southeast  Level FlightAware Approximate
02:08PM 41.4961 -73.8402 169° South  Level Estimated
02:09PM 41.4495 -73.8254 167° South  Level FlightAware Approximate
02:10PM 41.4028 -73.8106 167° South  Level FlightAware Approximate
02:11PM 41.3562 -73.7958 167° South  Level FlightAware Approximate
02:12PM 41.3094 -73.7815 168° South  Level Estimated
02:13PM 41.2629 -73.7658 166° South  Level FlightAware Approximate
02:14PM 41.2164 -73.7502 166° South  Level FlightAware Approximate
02:15PM 41.1699 -73.7346 166° South  Level FlightAware Approximate
02:16PM 41.1229 -73.7222 166° South  Level Estimated
02:17PM 41.0758 -73.7099 166° South  Level Estimated
02:18PM 41.0667 -73.7000 166° South  Level FlightAware Approximate
02:19PM 41.0669 -73.7076 166° South  Level Estimated
02:20PM 41.0667 -73.7000 166° South  Level FlightAware Approximate
02:21PM 41.0669 -73.7076 166° South  Level Estimated
02:22PM 41.0667 -73.7000 166° South  Level FlightAware Approximate
02:23PM 41.0669 -73.7076 166° South  Level Estimated
02:24PM 41.0667 -73.7000 166° South  Level FlightAware Approximate
02:25PM 41.0669 -73.7076 166° South  Level Estimated
02:26PM 41.0667 -73.7000 166° South  Level FlightAware Approximate
02:27PM 41.0669 -73.7076 166° South  Level Estimated
02:28PM 41.0667 -73.7000 166° South  Level FlightAware Approximate
02:29PM 41.0669 -73.7076 166° South  Level Estimated
02:30PM 41.0667 -73.7000 166° South  Level FlightAware Approximate
02:31PM 41.0669 -73.7076 166° South  Level Estimated
02:32PM 41.0667 -73.7000 166° South  Level FlightAware Approximate
02:33PM 41.0669 -73.7076 166° South  Level Estimated
02:34PM 41.0667 -73.7000 166° South  Level FlightAware Approximate